Time;durP1;ratioP1;P1;durP2;ratioP2;P2;SDS_P1;SDS_P2;PMS_P1;PMS_P2;Temp;Humidity;BMP_temperature;BMP_pressure;BME280_temperature;BME280_humidity;BME280_pressure;Samples;Min_cycle;Max_cycle;Signal;HPM_P1;HPM_P2
2022/01/20 00:00:14;;;;;;;10.80;10.25;;;;;;;-5.31;97.53;101067.78;5006746;28;20151;-61
2022/01/20 00:02:40;;;;;;;11.68;10.98;;;;;;;-5.30;97.88;101057.34;5011352;28;20048;-62
2022/01/20 00:08:03;;;;;;;11.02;10.43;;;;;;;-5.14;95.63;101059.31;5013849;28;20038;-63
2022/01/20 00:26:57;;;;;;;11.00;10.40;;;;;;;-5.37;95.68;101024.88;5009260;28;20120;-62
2022/01/20 00:29:30;;;;;;;11.75;11.15;;;;;;;-5.55;96.31;101012.72;5012083;28;20092;-63
2022/01/20 00:32:06;;;;;;;11.88;11.27;;;;;;;-5.46;96.27;101020.09;5012999;28;20109;-63
2022/01/20 00:35:04;;;;;;;11.75;11.15;;;;;;;-5.43;96.12;101011.41;5011334;28;20445;-62
2022/01/20 00:37:20;;;;;;;12.48;11.77;;;;;;;-5.51;96.70;101009.09;5008763;28;20041;-63
2022/01/20 00:39:46;;;;;;;13.30;12.50;;;;;;;-5.54;97.29;101004.03;5011500;28;20054;-63
2022/01/20 00:42:12;;;;;;;13.20;12.50;;;;;;;-5.43;97.16;100998.47;5010387;28;20517;-63
2022/01/20 00:44:37;;;;;;;14.20;13.35;;;;;;;-5.49;97.40;100996.13;5011179;28;20036;-63
2022/01/20 00:47:03;;;;;;;12.70;12.10;;;;;;;-5.45;97.41;100988.16;5011221;28;20066;-63
2022/01/20 00:49:28;;;;;;;14.25;13.35;;;;;;;-5.57;97.73;100980.91;5012139;28;20065;-62
2022/01/20 00:51:56;;;;;;;13.65;12.85;;;;;;;-5.60;98.24;100981.88;5011003;28;20685;-62
2022/01/20 00:54:22;;;;;;;13.02;12.32;;;;;;;-5.53;98.12;100977.28;5009975;28;20044;-63
2022/01/20 00:56:47;;;;;;;13.55;12.75;;;;;;;-5.53;98.32;100972.13;5008578;28;20029;-62
2022/01/20 00:59:13;;;;;;;12.75;12.10;;;;;;;-5.71;99.56;100958.19;5009580;28;20057;-62
2022/01/20 01:01:39;;;;;;;13.30;12.60;;;;;;;-5.71;100.00;100954.78;5012119;28;20115;-63
2022/01/20 01:04:05;;;;;;;12.75;12.15;;;;;;;-5.59;99.84;100954.28;5007831;28;20088;-63
2022/01/20 01:06:51;;;;;;;14.55;13.65;;;;;;;-5.72;100.00;100946.19;5012285;28;20030;-62
2022/01/20 01:09:17;;;;;;;14.27;13.55;;;;;;;-5.75;100.00;100940.28;5015597;28;20022;-62
2022/01/20 01:11:45;;;;;;;14.57;13.77;;;;;;;-5.77;100.00;100942.09;5017779;28;20037;-62
2022/01/20 01:14:16;;;;;;;14.35;13.55;;;;;;;-5.81;100.00;100941.38;5012147;28;20042;-64
2022/01/20 01:20:07;;;;;;;14.48;13.68;;;;;;;-5.94;100.00;100941.06;5017976;28;20053;-62
2022/01/20 01:24:44;;;;;;;15.35;14.45;;;;;;;-5.87;100.00;100926.97;5013045;28;20554;-62
2022/01/20 01:27:11;;;;;;;14.68;13.88;;;;;;;-5.84;100.00;100928.56;5012182;28;20050;-62
2022/01/20 01:32:30;;;;;;;13.80;13.10;;;;;;;-5.89;100.00;100915.00;5012784;28;20568;-64
2022/01/20 01:34:55;;;;;;;;;;;;;;;-5.87;100.00;100905.47;4999831;28;20030;-63
2022/01/20 01:40:03;;;;;;;14.95;14.05;;;;;;;-5.90;100.00;100892.66;5005683;28;20132;-62
2022/01/20 01:42:49;;;;;;;14.25;13.45;;;;;;;-5.85;100.00;100890.72;5014759;28;20037;-63
2022/01/20 01:45:29;;;;;;;14.85;13.95;;;;;;;-5.79;100.00;100881.91;4998022;28;20024;-62
2022/01/20 01:47:56;;;;;;;14.93;14.02;;;;;;;-5.84;100.00;100875.16;5012575;28;20053;-63
2022/01/20 01:50:22;;;;;;;14.63;13.90;;;;;;;-5.93;100.00;100874.75;5028034;28;20021;-62
2022/01/20 01:52:48;;;;;;;14.98;14.07;;;;;;;-6.00;100.00;100856.06;5016896;28;20040;-63
2022/01/20 01:55:14;;;;;;;14.45;13.65;;;;;;;-5.76;100.00;100863.69;5014199;28;20032;-62
2022/01/20 01:57:39;;;;;;;13.60;12.90;;;;;;;-5.91;100.00;100860.00;4996173;28;20112;-62
2022/01/20 02:00:07;;;;;;;14.43;13.63;;;;;;;-5.99;100.00;100856.91;5007270;28;20445;-61
2022/01/20 02:02:33;;;;;;;14.43;13.63;;;;;;;-6.03;100.00;100856.16;5015702;28;20031;-63
2022/01/20 02:05:02;;;;;;;15.15;14.25;;;;;;;-6.04;100.00;100853.66;5014045;28;20487;-62
2022/01/20 02:20:53;;;;;;;13.95;13.25;;;;;;;-6.06;100.00;100827.06;5014948;28;20052;-63
2022/01/20 02:23:19;;;;;;;14.27;13.48;;;;;;;-6.07;100.00;100813.31;4997147;28;20849;-62
2022/01/20 02:25:45;;;;;;;15.43;14.43;;;;;;;-6.03;100.00;100816.59;5014290;28;20390;-62
2022/01/20 02:28:12;;;;;;;14.57;13.77;;;;;;;-6.02;100.00;100803.63;5010422;28;20021;-62
2022/01/20 02:30:41;;;;;;;13.60;12.90;;;;;;;-6.08;100.00;100801.31;5014073;28;20049;-62
2022/01/20 02:33:10;;;;;;;13.60;12.90;;;;;;;-5.99;100.00;100792.34;5013194;28;20393;-63
2022/01/20 02:35:47;;;;;;;14.40;13.60;;;;;;;-6.14;100.00;100791.22;5012562;28;20053;-62
2022/01/20 02:38:26;;;;;;;13.80;13.10;;;;;;;-6.13;100.00;100790.31;5010577;28;20437;-62
2022/01/20 02:46:19;;;;;;;14.38;13.57;;;;;;;-6.11;100.00;100773.00;5014617;28;20163;-62
2022/01/20 02:48:45;;;;;;;14.80;14.00;;;;;;;-6.15;100.00;100771.47;5014250;28;20049;-62
2022/01/20 02:51:11;;;;;;;14.63;13.80;;;;;;;-6.17;100.00;100765.50;5012797;28;20022;-62
2022/01/20 02:53:39;;;;;;;14.63;13.82;;;;;;;-6.16;100.00;100765.47;5012993;28;20029;-64
2022/01/20 02:56:05;;;;;;;15.25;14.32;;;;;;;-6.22;100.00;100764.88;5012078;28;20076;-63
2022/01/20 02:58:30;;;;;;;14.73;13.88;;;;;;;-6.29;100.00;100743.63;5012924;28;20029;-63
2022/01/20 03:00:58;;;;;;;15.60;14.55;;;;;;;-6.29;100.00;100753.94;5012682;28;20117;-62
2022/01/20 03:03:23;;;;;;;14.38;13.63;;;;;;;-6.22;100.00;100751.97;5012308;28;20512;-63
2022/01/20 03:05:51;;;;;;;15.88;14.90;;;;;;;-6.26;100.00;100746.06;5013818;28;20018;-63
2022/01/20 03:08:19;;;;;;;15.23;14.35;;;;;;;-6.23;100.00;100743.38;5012790;28;20109;-63
2022/01/20 03:10:46;;;;;;;16.52;15.38;;;;;;;-6.38;100.00;100738.00;4997005;28;20100;-63
2022/01/20 03:13:12;;;;;;;15.05;14.25;;;;;;;-6.35;100.00;100738.72;5015167;28;20112;-61
2022/01/20 03:15:38;;;;;;;15.68;14.77;;;;;;;-6.38;100.00;100722.53;4994925;28;20034;-62
2022/01/20 03:18:04;;;;;;;15.13;14.32;;;;;;;-6.33;100.00;100720.56;5011985;28;20048;-63
2022/01/20 03:20:33;;;;;;;15.48;14.57;;;;;;;-6.44;100.00;100706.38;5012352;28;20025;-62
2022/01/20 03:23:02;;;;;;;15.90;14.90;;;;;;;-6.50;100.00;100706.63;5010029;28;20026;-63
2022/01/20 03:25:28;;;;;;;16.27;15.30;;;;;;;-6.50;100.00;100705.78;5013530;28;20030;-62
2022/01/20 03:27:54;;;;;;;16.27;15.38;;;;;;;-6.29;100.00;100709.22;5011635;28;20121;-62
2022/01/20 03:30:19;;;;;;;17.63;16.50;;;;;;;-6.28;100.00;100709.16;5013400;28;20037;-62
2022/01/20 03:32:45;;;;;;;16.60;15.60;;;;;;;-6.33;100.00;100702.50;5012598;28;20486;-62
2022/01/20 03:35:12;;;;;;;15.88;14.95;;;;;;;-6.38;100.00;100691.53;5011960;28;20033;-63
2022/01/20 03:37:40;;;;;;;15.45;14.65;;;;;;;-6.33;100.00;100695.59;5004661;28;20088;-62
2022/01/20 03:40:08;;;;;;;16.05;15.25;;;;;;;-6.37;100.00;100690.63;5010613;28;20054;-62
2022/01/20 03:42:34;;;;;;;17.17;16.17;;;;;;;-6.35;100.00;100694.00;5009121;28;20488;-64
2022/01/20 03:44:59;;;;;;;16.38;15.43;;;;;;;-6.23;100.00;100688.31;5012894;28;20034;-60
2022/01/20 03:47:26;;;;;;;15.25;14.45;;;;;;;-6.29;100.00;100681.66;5012685;28;20033;-62
2022/01/20 03:50:59;;;;;;;16.30;15.40;;;;;;;-6.33;100.00;100687.00;5011932;28;20033;-62
2022/01/20 03:52:43;;;;;;;16.92;15.93;;;;;;;-6.38;100.00;100686.38;5008290;28;20520;-62
2022/01/20 03:55:09;;;;;;;16.58;15.60;;;;;;;-6.40;100.00;100679.50;5011677;28;20047;-64
2022/01/20 03:57:34;;;;;;;16.33;15.43;;;;;;;-6.42;100.00;100675.34;5005821;28;20030;-62
2022/01/20 04:00:00;;;;;;;17.73;16.63;;;;;;;-6.35;100.00;100686.25;5010376;28;20400;-64
2022/01/20 04:02:25;;;;;;;17.63;16.63;;;;;;;-6.32;100.00;100686.94;5013039;28;20057;-64
2022/01/20 04:04:51;;;;;;;17.65;16.65;;;;;;;-6.24;100.00;100673.72;5011308;28;21273;-64
2022/01/20 04:07:18;;;;;;;17.48;16.48;;;;;;;-6.25;100.00;100672.03;5012926;28;20033;-64
2022/01/20 04:09:44;;;;;;;18.13;17.13;;;;;;;-6.26;100.00;100666.03;5011453;28;20064;-63
2022/01/20 04:12:10;;;;;;;16.35;15.55;;;;;;;-6.28;100.00;100667.03;5011612;28;20088;-64
2022/01/20 04:14:44;;;;;;;15.73;14.93;;;;;;;-6.37;100.00;100675.16;5012638;28;20501;-64
2022/01/20 04:17:15;;;;;;;18.08;16.95;;;;;;;-6.46;100.00;100672.06;5005711;28;20058;-65
2022/01/20 04:19:40;;;;;;;16.55;15.65;;;;;;;-6.28;100.00;100687.66;5009552;28;20025;-64
2022/01/20 04:22:06;;;;;;;18.08;16.90;;;;;;;-6.38;100.00;100682.06;5007120;28;20030;-63
2022/01/20 04:24:31;;;;;;;15.77;14.98;;;;;;;-6.37;100.00;100678.56;5008841;28;20062;-63
2022/01/20 04:26:58;;;;;;;16.73;15.82;;;;;;;-6.33;100.00;100680.09;5009128;28;20486;-64
2022/01/20 04:29:26;;;;;;;16.67;15.75;;;;;;;-6.31;100.00;100668.00;5008938;28;20046;-63
2022/01/20 04:31:51;;;;;;;16.27;15.35;;;;;;;-6.38;100.00;100660.56;5010498;28;20168;-64
2022/01/20 04:34:17;;;;;;;15.70;14.80;;;;;;;-6.40;100.00;100650.28;5009109;28;20120;-63
2022/01/20 04:36:48;;;;;;;15.77;14.93;;;;;;;-6.34;100.00;100647.47;5012158;28;20168;-63
2022/01/20 04:39:17;;;;;;;16.08;15.18;;;;;;;-6.44;100.00;100634.09;5011125;28;20034;-65
2022/01/20 04:41:43;;;;;;;16.65;15.75;;;;;;;-6.43;100.00;100634.94;5008167;28;20022;-64
2022/01/20 04:44:15;;;;;;;16.70;15.70;;;;;;;-6.42;100.00;100628.88;5011961;28;20038;-64
2022/01/20 04:57:03;;;;;;;16.42;15.55;;;;;;;-6.43;100.00;100616.88;5008022;28;20049;-65
2022/01/20 04:57:25;;;;;;;16.83;15.77;;;;;;;-6.55;100.00;100612.22;5004898;28;20117;-64
2022/01/20 04:59:52;;;;;;;15.85;14.95;;;;;;;-6.55;100.00;100607.91;5011149;28;20120;-65
2022/01/20 05:02:18;;;;;;;16.38;15.40;;;;;;;-6.51;100.00;100603.47;5006702;28;20452;-64
2022/01/20 05:04:44;;;;;;;16.17;15.23;;;;;;;-6.55;100.00;100607.91;5014745;28;20057;-64
2022/01/20 05:07:17;;;;;;;16.52;15.52;;;;;;;-6.56;100.00;100608.81;4994091;28;20064;-64
2022/01/20 05:09:42;;;;;;;17.52;16.35;;;;;;;-6.64;100.00;100608.28;5006506;28;20389;-65
2022/01/20 05:12:15;;;;;;;18.13;16.88;;;;;;;-6.71;100.00;100617.19;5012627;28;20034;-65
2022/01/20 05:14:40;;;;;;;16.73;15.73;;;;;;;-6.60;100.00;100603.84;5010033;28;20018;-64
2022/01/20 05:17:06;;;;;;;17.58;16.48;;;;;;;-6.76;100.00;100608.78;5009459;28;20091;-64
2022/01/20 05:19:32;;;;;;;17.45;16.45;;;;;;;-6.86;100.00;100594.59;5012057;28;20068;-64
2022/01/20 05:21:59;;;;;;;16.45;15.50;;;;;;;-6.76;100.00;100601.88;5016674;28;20040;-64
2022/01/20 05:24:25;;;;;;;16.95;15.95;;;;;;;-6.97;100.00;100595.06;4992293;28;20085;-64
2022/01/20 05:26:55;;;;;;;18.42;17.23;;;;;;;-7.03;100.00;100590.97;5005271;28;20429;-64
2022/01/20 05:29:22;;;;;;;17.52;16.60;;;;;;;-6.97;100.00;100607.94;5006911;28;20033;-65
2022/01/20 05:31:51;;;;;;;21.48;19.90;;;;;;;-6.91;100.00;100601.69;5005107;28;20040;-64
2022/01/20 05:34:17;;;;;;;21.90;20.38;;;;;;;-6.99;100.00;100592.50;5002289;28;20032;-64
2022/01/20 05:36:46;;;;;;;19.98;18.77;;;;;;;-7.03;100.00;100587.56;5006955;28;20026;-63
2022/01/20 05:39:11;;;;;;;19.55;18.35;;;;;;;-6.96;100.00;100592.41;5013600;28;20041;-64
2022/01/20 05:41:37;;;;;;;19.60;18.30;;;;;;;-6.85;100.00;100579.06;5011958;28;20030;-63
2022/01/20 05:44:03;;;;;;;19.83;18.42;;;;;;;-6.96;100.00;100581.25;5006120;28;20034;-63
2022/01/20 05:46:35;;;;;;;19.42;18.15;;;;;;;-6.90;100.00;100577.56;5006931;28;20552;-63
2022/01/20 05:49:08;;;;;;;18.88;17.67;;;;;;;-6.96;100.00;100581.25;5013389;28;20037;-63
2022/01/20 05:51:35;;;;;;;19.90;18.58;;;;;;;-7.03;100.00;100572.09;5014333;28;20077;-63
2022/01/20 05:54:01;;;;;;;18.10;17.00;;;;;;;-7.02;100.00;100574.59;5013554;28;20032;-63
2022/01/20 05:56:26;;;;;;;19.45;18.27;;;;;;;-6.97;100.00;100585.56;5015472;28;20037;-63
2022/01/20 05:58:52;;;;;;;20.00;18.63;;;;;;;-6.69;100.00;100579.25;5010240;28;20111;-63
2022/01/20 06:01:17;;;;;;;17.90;16.90;;;;;;;-6.86;100.00;100587.69;5012211;28;20021;-64
2022/01/20 06:03:43;;;;;;;16.13;15.23;;;;;;;-6.27;100.00;100581.75;5007709;28;20041;-62
2022/01/20 06:06:11;;;;;;;15.18;14.27;;;;;;;-5.50;97.86;100579.13;4998467;28;20088;-64
2022/01/20 06:08:38;;;;;;;16.13;15.10;;;;;;;-5.73;96.27;100580.16;5013156;28;20029;-63
2022/01/20 06:11:04;;;;;;;14.63;13.57;;;;;;;-6.07;97.40;100574.91;5011760;28;20061;-62
2022/01/20 06:13:30;;;;;;;11.68;11.07;;;;;;;-6.00;97.43;100576.31;5010900;28;20049;-63
2022/01/20 06:15:56;;;;;;;11.35;10.75;;;;;;;-5.14;92.34;100586.03;5017451;28;20080;-63
2022/01/20 06:18:23;;;;;;;10.43;9.85;;;;;;;-4.94;92.13;100580.75;5013328;28;20030;-63
2022/01/20 06:20:49;;;;;;;9.30;8.80;;;;;;;-4.59;91.61;100565.22;5014843;28;20563;-64
2022/01/20 06:23:15;;;;;;;11.45;10.68;;;;;;;-4.44;87.96;100554.09;5007105;28;20037;-62
2022/01/20 06:25:41;;;;;;;8.50;8.10;;;;;;;-4.42;87.17;100549.66;5012678;28;20073;-63
2022/01/20 06:28:07;;;;;;;9.13;8.65;;;;;;;-4.84;87.13;100552.69;5009415;28;20192;-63
2022/01/20 06:30:33;;;;;;;8.73;8.32;;;;;;;-3.26;81.16;100561.56;5013515;28;20485;-62
2022/01/20 06:32:59;;;;;;;10.68;9.98;;;;;;;-3.16;80.44;100554.09;5014809;28;20104;-63
2022/01/20 06:35:25;;;;;;;9.27;8.77;;;;;;;-2.01;71.96;100543.78;5013101;28;20145;-63
2022/01/20 06:37:50;;;;;;;10.60;9.90;;;;;;;-1.86;73.12;100543.78;5011117;28;20121;-61
2022/01/20 06:40:16;;;;;;;9.40;8.90;;;;;;;-2.25;72.36;100542.69;5009446;28;20053;-63
2022/01/20 06:42:42;;;;;;;8.95;8.55;;;;;;;-0.19;66.87;100552.78;5011017;28;20030;-62
2022/01/20 06:45:13;;;;;;;10.15;9.55;;;;;;;-0.95;68.95;100544.91;5014389;28;20076;-63
2022/01/20 06:47:39;;;;;;;8.88;8.38;;;;;;;-1.45;68.21;100565.44;5014152;28;20029;-62
2022/01/20 06:50:08;;;;;;;9.15;8.65;;;;;;;1.87;60.66;100557.78;5014337;28;20040;-63
2022/01/20 06:52:35;;;;;;;9.32;8.82;;;;;;;3.90;49.77;100561.41;5012929;28;20098;-62
2022/01/20 06:55:05;;;;;;;8.35;7.95;;;;;;;3.48;48.33;100556.19;5012692;28;20018;-62
2022/01/20 06:57:31;;;;;;;8.38;7.97;;;;;;;3.65;53.45;100534.59;5009427;28;20037;-62
2022/01/20 06:59:57;;;;;;;8.65;8.23;;;;;;;6.21;44.95;100534.28;5012921;28;20030;-63
2022/01/20 07:02:25;;;;;;;8.93;8.43;;;;;;;5.36;47.79;100544.91;5006985;28;20075;-63
2022/01/20 07:04:53;;;;;;;8.55;8.15;;;;;;;6.63;43.77;100544.31;5009382;28;20106;-62
2022/01/20 07:07:19;;;;;;;8.32;7.93;;;;;;;4.42;47.62;100531.47;4996966;28;20092;-62
2022/01/20 07:09:45;;;;;;;8.02;7.63;;;;;;;5.55;45.69;100519.38;5011631;28;20500;-63
2022/01/20 07:12:11;;;;;;;8.05;7.65;;;;;;;7.07;41.75;100524.13;5010231;28;20065;-62
2022/01/20 07:14:38;;;;;;;8.55;8.15;;;;;;;6.96;40.07;100523.53;5012850;28;20034;-62
2022/01/20 07:17:04;;;;;;;8.32;7.93;;;;;;;9.14;39.61;100524.72;5012440;28;20026;-64
2022/01/20 07:19:30;;;;;;;8.35;7.95;;;;;;;4.81;45.46;100521.00;5010627;28;20029;-62
2022/01/20 07:21:55;;;;;;;8.95;8.50;;;;;;;8.89;39.23;100520.38;5010035;28;20769;-62
2022/01/20 07:24:21;;;;;;;8.38;7.97;;;;;;;8.42;37.92;100521.78;5012963;28;20025;-62
2022/01/20 07:26:46;;;;;;;9.32;8.82;;;;;;;8.70;37.40;100517.06;5010204;28;20042;-63
2022/01/20 07:29:12;;;;;;;8.38;7.97;;;;;;;2.87;49.52;100525.38;4995972;28;20030;-63
2022/01/20 07:31:37;;;;;;;9.25;8.75;;;;;;;2.75;49.65;100515.91;5011919;28;20494;-63
2022/01/20 07:34:03;;;;;;;8.50;8.10;;;;;;;7.76;40.39;100514.53;5013431;28;20030;-63
2022/01/20 07:36:28;;;;;;;9.13;8.63;;;;;;;8.07;38.23;100524.59;5010585;28;20030;-64
2022/01/20 07:38:54;;;;;;;9.65;9.15;;;;;;;5.45;44.43;100521.22;5012984;28;20033;-63
2022/01/20 07:41:20;;;;;;;8.95;8.48;;;;;;;5.09;45.14;100514.91;5004116;28;20033;-63
2022/01/20 07:43:45;;;;;;;8.63;8.23;;;;;;;5.57;45.70;100516.59;5008758;28;20021;-66
2022/01/20 07:46:11;;;;;;;10.15;9.55;;;;;;;5.68;44.91;100518.25;5006106;28;20025;-63
2022/01/20 07:48:36;;;;;;;8.45;8.05;;;;;;;8.82;39.73;100512.31;5007456;28;20021;-64
2022/01/20 07:51:05;;;;;;;11.57;10.88;;;;;;;9.73;35.69;100513.91;5004698;28;20034;-63
2022/01/20 07:53:32;;;;;;;8.18;7.78;;;;;;;7.34;41.36;100522.34;5007253;28;20044;-64
2022/01/20 07:55:58;;;;;;;8.77;8.38;;;;;;;11.31;34.81;100522.34;5005769;28;20362;-63
2022/01/20 07:58:26;;;;;;;8.70;8.30;;;;;;;11.28;33.93;100516.53;5003016;28;20056;-67
2022/01/20 08:00:51;;;;;;;9.85;9.35;;;;;;;10.99;33.84;100527.88;5006830;28;20040;-66
2022/01/20 08:03:16;;;;;;;8.45;8.05;;;;;;;11.68;32.97;100510.03;5009602;28;20034;-66
2022/01/20 08:05:42;;;;;;;9.00;8.60;;;;;;;11.87;33.94;100509.50;5010545;28;20025;-66
2022/01/20 08:08:08;;;;;;;8.45;8.05;;;;;;;11.98;33.13;100512.72;5009596;28;20034;-63
2022/01/20 08:10:35;;;;;;;8.80;8.40;;;;;;;10.34;36.15;100515.84;5009332;28;20563;-66
2022/01/20 08:13:01;;;;;;;8.63;8.23;;;;;;;10.56;34.75;100513.41;5013561;28;20034;-66
2022/01/20 08:15:28;;;;;;;8.82;8.43;;;;;;;10.24;34.84;100502.81;5008421;28;20168;-66
2022/01/20 08:17:53;;;;;;;8.02;7.65;;;;;;;11.55;33.26;100499.19;5010783;28;20026;-65
2022/01/20 08:20:19;;;;;;;8.68;8.27;;;;;;;11.23;34.17;100505.63;5005476;28;20038;-66
2022/01/20 08:22:45;;;;;;;8.18;7.78;;;;;;;11.27;33.24;100507.75;5001226;28;20068;-65
2022/01/20 08:25:13;;;;;;;8.32;7.93;;;;;;;11.07;33.63;100496.78;5016664;28;20048;-66
2022/01/20 08:27:41;;;;;;;8.30;7.90;;;;;;;11.20;34.44;100490.88;5014655;28;20137;-66
2022/01/20 08:30:10;;;;;;;8.57;8.18;;;;;;;12.37;32.17;100486.59;5001683;28;20429;-66
2022/01/20 08:32:36;;;;;;;8.77;8.38;;;;;;;11.23;34.27;100490.50;5015989;28;20109;-65
2022/01/20 08:35:06;;;;;;;8.20;7.80;;;;;;;12.75;32.66;100491.72;4999386;28;20170;-65
2022/01/20 08:37:32;;;;;;;7.80;7.50;;;;;;;12.70;31.64;100497.59;5020044;28;20037;-66
2022/01/20 08:39:58;;;;;;;8.27;7.88;;;;;;;12.20;32.39;100492.34;5010945;28;20045;-66
2022/01/20 08:42:23;;;;;;;9.75;9.25;;;;;;;10.32;36.21;100494.00;5016151;28;20034;-66
2022/01/20 08:44:49;;;;;;;9.20;8.80;;;;;;;12.97;30.67;100498.69;5013377;28;20037;-66
2022/01/20 08:47:20;;;;;;;8.43;8.02;;;;;;;7.87;38.59;100503.72;5011242;28;20500;-65
2022/01/20 08:49:47;;;;;;;8.80;8.40;;;;;;;8.55;36.81;100487.78;5005809;28;20072;-65
2022/01/20 08:52:12;;;;;;;8.27;7.88;;;;;;;13.16;32.06;100491.06;5012607;28;20032;-65
2022/01/20 08:54:38;;;;;;;8.35;7.95;;;;;;;12.62;32.80;100492.41;5008512;28;20029;-66
2022/01/20 08:57:06;;;;;;;8.20;7.80;;;;;;;9.58;34.41;100479.34;5015774;28;20401;-68
2022/01/20 08:59:32;;;;;;;8.70;8.30;;;;;;;12.96;31.96;100507.69;5006045;28;20029;-66
2022/01/20 09:01:57;;;;;;;8.88;8.48;;;;;;;10.59;33.80;100503.28;5007012;28;20030;-67
2022/01/20 09:04:23;;;;;;;8.23;7.82;;;;;;;9.51;35.86;100496.91;5010160;28;20404;-66
2022/01/20 09:06:48;;;;;;;8.13;7.72;;;;;;;9.09;36.69;100496.09;5005897;28;20038;-64
2022/01/20 09:09:19;;;;;;;8.15;7.75;;;;;;;9.77;36.86;100496.66;5010923;28;20123;-65
2022/01/20 09:17:15;;;;;;;7.90;7.57;;;;;;;13.63;30.12;100462.94;5003219;28;20041;-65
2022/01/20 09:19:41;;;;;;;8.82;8.43;;;;;;;15.41;27.39;100467.91;5008992;28;20030;-67
2022/01/20 09:22:06;;;;;;;8.40;8.00;;;;;;;15.30;27.46;100476.56;5008006;28;20025;-66
2022/01/20 09:24:32;;;;;;;8.20;7.80;;;;;;;14.06;27.70;100469.72;5015621;28;20022;-66
2022/01/20 09:26:57;;;;;;;7.93;7.60;;;;;;;14.89;27.61;100469.56;5008511;28;20045;-66
2022/01/20 09:29:23;;;;;;;8.23;7.82;;;;;;;14.70;27.62;100457.03;5009790;28;20397;-65
2022/01/20 09:31:50;;;;;;;9.07;8.68;;;;;;;15.17;27.34;100454.16;5008929;28;20072;-66
2022/01/20 09:34:16;;;;;;;8.40;8.00;;;;;;;14.75;27.99;100451.88;5003953;28;20065;-66
2022/01/20 09:36:42;;;;;;;8.23;7.82;;;;;;;15.30;26.91;100452.50;5008901;28;20112;-67
2022/01/20 09:39:07;;;;;;;8.60;8.20;;;;;;;12.73;29.48;100446.66;5008900;28;20036;-67
2022/01/20 09:41:33;;;;;;;8.45;8.05;;;;;;;11.13;31.95;100436.03;5010612;28;20064;-67
2022/01/20 09:43:59;;;;;;;8.80;8.40;;;;;;;10.43;33.90;100440.56;5008199;28;20480;-65
2022/01/20 09:46:25;;;;;;;8.95;8.55;;;;;;;8.61;36.05;100425.50;5006907;28;20026;-66
2022/01/20 09:48:51;;;;;;;9.15;8.70;;;;;;;7.88;38.00;100422.69;5012528;28;20075;-66
2022/01/20 09:51:16;;;;;;;9.43;8.93;;;;;;;8.63;37.73;100428.81;5012360;28;20432;-64
2022/01/20 09:53:42;;;;;;;9.43;8.93;;;;;;;8.57;37.00;100421.53;5014177;28;20030;-66
2022/01/20 09:56:07;;;;;;;9.80;9.30;;;;;;;8.41;37.92;100422.34;5009021;28;20034;-64
2022/01/20 09:58:33;;;;;;;9.48;8.98;;;;;;;8.22;38.35;100419.94;5000390;28;20026;-65
2022/01/20 10:01:02;;;;;;;9.15;8.75;;;;;;;7.69;38.50;100410.53;5007552;28;20036;-64
2022/01/20 10:03:29;;;;;;;10.25;9.65;;;;;;;8.23;38.73;100408.41;5010500;28;20033;-67
2022/01/20 10:06:00;;;;;;;10.85;10.20;;;;;;;8.62;37.62;100403.34;5008880;28;20420;-66
2022/01/20 10:08:28;;;;;;;10.23;9.63;;;;;;;8.06;38.38;100396.13;5010004;28;20057;-66
2022/01/20 10:10:55;;;;;;;9.30;8.80;;;;;;;7.73;38.91;100393.41;5009352;28;20030;-68
2022/01/20 10:13:23;;;;;;;13.30;12.30;;;;;;;7.56;38.62;100392.50;5011213;28;20029;-68
2022/01/20 10:16:03;;;;;;;9.73;9.23;;;;;;;7.31;39.18;100390.75;5011522;28;20030;-66
2022/01/20 10:18:31;;;;;;;9.45;8.95;;;;;;;7.21;38.71;100385.59;5007985;28;20038;-67
2022/01/20 10:20:59;;;;;;;9.90;9.32;;;;;;;7.24;39.49;100382.63;5007382;28;20033;-67
2022/01/20 10:23:38;;;;;;;9.57;8.98;;;;;;;7.02;39.42;100378.69;5012464;28;20072;-67
2022/01/20 10:26:16;;;;;;;9.85;9.27;;;;;;;6.93;39.35;100375.19;5003431;28;20060;-68
2022/01/20 10:28:44;;;;;;;9.30;8.80;;;;;;;6.38;40.16;100367.50;5011645;28;20036;-69
2022/01/20 10:31:11;;;;;;;9.48;8.95;;;;;;;6.64;40.04;100372.00;5007057;28;20117;-66
2022/01/20 10:33:43;;;;;;;9.55;9.05;;;;;;;6.84;39.48;100362.94;5010996;28;20095;-67
2022/01/20 10:36:11;;;;;;;9.23;8.73;;;;;;;6.98;40.03;100358.06;4996845;28;20029;-67
2022/01/20 10:38:48;;;;;;;9.18;8.68;;;;;;;7.06;39.08;100353.69;5017813;28;20026;-68
2022/01/20 10:41:25;;;;;;;9.15;8.65;;;;;;;7.06;39.33;100353.69;5013488;28;20038;-66
2022/01/20 10:44:00;;;;;;;9.35;8.82;;;;;;;6.86;39.04;100344.31;5018610;28;20026;-67
2022/01/20 10:46:25;;;;;;;10.20;9.55;;;;;;;6.92;38.33;100352.44;5009730;28;20033;-68
2022/01/20 10:49:00;;;;;;;9.32;8.82;;;;;;;6.97;38.70;100343.22;4994746;28;20036;-67
2022/01/20 10:51:26;;;;;;;9.68;9.07;;;;;;;6.98;38.23;100336.94;5009463;28;20080;-67
2022/01/20 10:54:01;;;;;;;9.20;8.70;;;;;;;6.87;38.81;100314.31;5012408;28;20108;-67
2022/01/20 10:56:29;;;;;;;9.18;8.68;;;;;;;6.74;40.08;100327.09;4997995;28;20405;-67
2022/01/20 10:59:06;;;;;;;9.05;8.55;;;;;;;6.48;41.61;100332.34;5012651;28;20038;-67
2022/01/20 11:01:31;;;;;;;9.07;8.57;;;;;;;6.45;43.09;100325.56;5010077;28;20435;-67
2022/01/20 11:03:58;;;;;;;9.15;8.65;;;;;;;6.95;42.43;100314.38;5010999;28;20026;-67
2022/01/20 11:06:23;;;;;;;9.73;9.13;;;;;;;6.53;41.71;100315.06;5017241;28;20398;-67
2022/01/20 11:08:54;;;;;;;10.45;9.75;;;;;;;6.94;41.37;100312.72;5011786;28;20022;-67
2022/01/20 11:11:19;;;;;;;8.77;8.30;;;;;;;7.05;40.22;100312.47;5008356;28;20076;-67
2022/01/20 11:13:45;;;;;;;9.15;8.65;;;;;;;6.90;39.24;100311.38;5001727;28;20080;-67
2022/01/20 11:16:12;;;;;;;9.13;8.63;;;;;;;7.03;39.39;100301.22;5000489;28;20079;-67
2022/01/20 11:18:39;;;;;;;8.88;8.38;;;;;;;7.11;38.88;100309.16;5009622;28;20030;-67
2022/01/20 11:21:07;;;;;;;8.60;8.13;;;;;;;7.14;38.19;100297.50;5018294;28;20075;-65
2022/01/20 11:23:41;;;;;;;8.70;8.23;;;;;;;7.33;38.15;100314.88;5005618;28;20038;-67
2022/01/20 11:26:07;;;;;;;8.82;8.32;;;;;;;7.14;38.59;100303.59;5008677;28;20050;-65
2022/01/20 11:28:32;;;;;;;10.43;9.73;;;;;;;6.97;38.86;100291.28;5014984;28;20045;-65
2022/01/20 11:31:04;;;;;;;8.77;8.27;;;;;;;7.25;37.99;100296.38;5005652;28;20029;-65
2022/01/20 11:33:44;;;;;;;9.70;9.10;;;;;;;6.93;38.77;100303.16;5000961;28;20823;-64
2022/01/20 11:36:24;;;;;;;8.80;8.30;;;;;;;6.91;38.79;100294.59;5004260;28;20049;-66
2022/01/20 11:38:53;;;;;;;9.75;9.15;;;;;;;7.22;40.00;100294.88;5007265;28;20149;-66
2022/01/20 11:41:21;;;;;;;8.98;8.48;;;;;;;7.39;39.17;100288.69;5006505;28;20057;-66
2022/01/20 11:43:49;;;;;;;9.73;9.13;;;;;;;7.25;38.34;100291.94;4996937;28;20017;-66
2022/01/20 11:46:20;;;;;;;9.27;8.77;;;;;;;7.13;38.70;100285.31;5006760;28;20026;-66
2022/01/20 11:48:56;;;;;;;9.65;9.05;;;;;;;7.39;38.79;100287.84;5009721;28;20481;-70
2022/01/20 11:51:23;;;;;;;8.88;8.38;;;;;;;7.14;39.09;100281.66;5017360;28;20044;-66
2022/01/20 11:54:01;;;;;;;9.77;9.18;;;;;;;7.17;38.65;100268.16;5004684;28;20970;-70
2022/01/20 11:56:35;;;;;;;9.20;8.70;;;;;;;7.25;38.33;100273.47;5006660;28;20105;-71
2022/01/20 11:59:06;;;;;;;9.15;8.65;;;;;;;7.28;39.18;100259.97;4995164;28;20496;-68
2022/01/20 12:01:53;;;;;;;10.20;9.50;;;;;;;7.25;39.12;100270.81;5001315;28;20512;-73
2022/01/20 12:04:35;;;;;;;10.35;9.68;;;;;;;6.65;38.80;100263.78;5008405;28;20034;-67
2022/01/20 12:07:01;;;;;;;9.15;8.65;;;;;;;6.91;38.85;100247.94;5007466;28;20108;-65
2022/01/20 12:09:36;;;;;;;9.90;9.30;;;;;;;6.75;38.24;100252.28;5013011;28;20025;-67
2022/01/20 12:12:03;;;;;;;9.65;9.05;;;;;;;6.83;38.85;100255.81;5009867;28;20034;-66
2022/01/20 12:14:38;;;;;;;8.80;8.30;;;;;;;6.99;39.01;100255.06;5012760;28;20041;-68
2022/01/20 12:17:14;;;;;;;9.52;8.98;;;;;;;7.00;38.45;100254.06;4996689;28;20036;-65
2022/01/20 12:19:40;;;;;;;9.13;8.63;;;;;;;6.85;39.06;100247.75;5007689;28;20037;-67
2022/01/20 12:22:09;;;;;;;9.10;8.60;;;;;;;7.19;39.13;100242.44;5004775;28;20053;-67